Time;durP1;ratioP1;P1;durP2;ratioP2;P2;SDS_P1;SDS_P2;PMS_P1;PMS_P2;Temp;Humidity;BMP_temperature;BMP_pressure;BME280_temperature;BME280_humidity;BME280_pressure;Samples;Min_cycle;Max_cycle;Signal;HPM_P1;HPM_P2
2023/09/13 00:00:27;;;;;;;7.85;6.57;;;21.60;90.10;;;;;;5012616;28;20018;-90
2023/09/13 00:02:53;;;;;;;8.02;6.13;;;21.70;90.10;;;;;;5011954;28;20037;-89
2023/09/13 00:05:18;;;;;;;7.38;6.00;;;21.60;90.10;;;;;;5011708;28;20083;-89
2023/09/13 00:07:44;;;;;;;6.90;5.80;;;21.60;90.10;;;;;;5011942;28;20157;-89
2023/09/13 00:10:10;;;;;;;8.88;7.10;;;21.60;90.20;;;;;;5012981;28;20068;-90
2023/09/13 00:12:35;;;;;;;6.90;6.15;;;21.50;90.20;;;;;;5008159;28;20501;-90
2023/09/13 00:15:01;;;;;;;8.43;7.32;;;21.50;90.30;;;;;;5009067;28;20033;-90
2023/09/13 00:17:27;;;;;;;8.50;6.93;;;21.50;90.40;;;;;;5012475;28;20437;-89
2023/09/13 00:19:56;;;;;;;8.50;7.32;;;21.50;90.40;;;;;;5012647;28;20014;-89
2023/09/13 00:22:22;;;;;;;7.93;6.65;;;21.50;90.50;;;;;;5012211;28;20022;-91
2023/09/13 00:24:47;;;;;;;9.77;6.97;;;21.40;90.60;;;;;;5004771;28;20052;-88
2023/09/13 00:27:13;;;;;;;7.45;6.47;;;21.40;90.60;;;;;;5017628;28;20030;-88
2023/09/13 00:29:39;;;;;;;8.23;7.07;;;21.50;90.50;;;;;;5012284;28;20022;-87
2023/09/13 00:32:05;;;;;;;9.27;7.22;;;21.50;90.50;;;;;;5014375;28;20305;-88
2023/09/13 00:34:31;;;;;;;8.00;7.10;;;21.50;90.40;;;;;;5009219;28;20143;-90
2023/09/13 00:36:57;;;;;;;7.57;6.80;;;21.60;90.40;;;;;;5011987;28;20018;-90
2023/09/13 00:39:22;;;;;;;9.10;7.25;;;21.60;90.40;;;;;;5005291;28;20022;-89
2023/09/13 00:41:48;;;;;;;8.02;6.18;;;21.60;90.40;;;;;;5011101;28;20026;-90
2023/09/13 00:44:14;;;;;;;8.10;7.20;;;21.60;90.40;;;;;;5011866;28;20026;-90
2023/09/13 00:46:41;;;;;;;7.75;6.70;;;21.60;90.30;;;;;;5011192;28;20033;-89
2023/09/13 00:49:08;;;;;;;7.75;6.50;;;21.60;90.30;;;;;;5013706;28;20028;-90
2023/09/13 00:51:34;;;;;;;7.38;5.90;;;21.60;90.30;;;;;;5000798;28;20030;-90
2023/09/13 00:54:04;;;;;;;10.15;7.20;;;21.60;90.30;;;;;;5011180;28;20017;-91
2023/09/13 00:56:34;;;;;;;7.90;6.30;;;21.60;90.30;;;;;;5011575;28;20108;-89
2023/09/13 00:59:01;;;;;;;8.32;7.13;;;21.50;90.30;;;;;;5012151;28;20490;-89
2023/09/13 01:01:27;;;;;;;8.95;7.00;;;21.50;90.30;;;;;;5012323;28;20518;-89
2023/09/13 01:03:53;;;;;;;8.25;7.18;;;21.50;90.60;;;;;;5012190;28;20045;-89
2023/09/13 01:06:19;;;;;;;8.95;6.80;;;21.50;90.40;;;;;;5012331;28;20056;-89
2023/09/13 01:08:45;;;;;;;8.52;7.43;;;21.50;90.40;;;;;;5012457;28;20026;-89
2023/09/13 01:11:11;;;;;;;9.48;6.57;;;21.40;90.70;;;;;;5011991;28;20021;-91
2023/09/13 01:13:37;;;;;;;9.05;7.90;;;21.50;90.50;;;;;;5014693;28;20021;-90
2023/09/13 01:16:24;;;;;;;8.45;7.20;;;21.40;90.50;;;;;;5003906;28;20512;-91
2023/09/13 01:18:59;;;;;;;10.77;8.63;;;21.40;90.50;;;;;;5012866;28;20030;-90
2023/09/13 01:21:48;;;;;;;8.98;7.40;;;21.30;90.70;;;;;;5008902;28;20026;-91
2023/09/13 01:24:23;;;;;;;8.32;7.07;;;21.30;90.80;;;;;;5023635;28;20021;-91
2023/09/13 01:27:00;;;;;;;9.82;7.20;;;21.30;90.80;;;;;;5005429;28;20462;-91
2023/09/13 01:29:31;;;;;;;8.40;7.43;;;21.40;90.70;;;;;;5010574;28;20026;-91
2023/09/13 01:31:56;;;;;;;8.80;7.35;;;21.40;90.70;;;;;;5001559;28;20398;-90
2023/09/13 01:34:22;;;;;;;8.02;6.38;;;21.40;90.60;;;;;;5011287;28;20029;-89
2023/09/13 01:36:48;;;;;;;7.72;6.75;;;21.40;90.60;;;;;;5012113;28;20033;-90
2023/09/13 01:39:13;;;;;;;8.40;7.05;;;21.40;90.50;;;;;;5012436;28;20073;-90
2023/09/13 01:41:59;;;;;;;9.60;6.95;;;21.50;90.50;;;;;;5011373;28;20048;-90
2023/09/13 01:44:27;;;;;;;7.75;5.95;;;21.50;90.50;;;;;;5019510;28;20022;-90
2023/09/13 01:46:54;;;;;;;7.32;6.50;;;21.50;90.40;;;;;;5019354;28;20382;-90
2023/09/13 01:49:21;;;;;;;10.05;8.40;;;21.50;90.40;;;;;;5010843;28;20052;-87
2023/09/13 01:51:48;;;;;;;8.55;7.65;;;21.50;90.40;;;;;;5008929;28;20058;-88
2023/09/13 01:54:17;;;;;;;8.15;7.28;;;21.50;90.40;;;;;;5017613;28;20018;-89
2023/09/13 01:56:42;;;;;;;9.07;7.80;;;21.50;90.40;;;;;;5003667;28;20030;-89
2023/09/13 01:59:08;;;;;;;9.73;7.82;;;21.50;90.30;;;;;;5005895;28;20044;-89
2023/09/13 02:01:34;;;;;;;9.15;7.10;;;21.50;90.40;;;;;;5003928;28;20018;-89
2023/09/13 02:03:59;;;;;;;9.15;8.15;;;21.50;90.40;;;;;;5008813;28;20389;-88
2023/09/13 02:06:25;;;;;;;8.50;7.38;;;21.50;90.40;;;;;;5007385;28;20474;-89
2023/09/13 02:08:51;;;;;;;8.15;6.72;;;21.50;90.40;;;;;;5010977;28;20022;-90
2023/09/13 02:11:17;;;;;;;8.07;6.55;;;21.50;90.40;;;;;;5003282;28;20479;-90
2023/09/13 02:13:42;;;;;;;7.95;6.70;;;21.50;90.40;;;;;;5008915;28;20026;-91
2023/09/13 02:16:08;;;;;;;9.23;7.50;;;21.60;90.40;;;;;;5009055;28;20026;-91
2023/09/13 02:18:34;;;;;;;11.50;8.43;;;21.60;90.30;;;;;;5009412;28;20018;-90
2023/09/13 02:21:00;;;;;;;8.70;7.55;;;21.50;90.50;;;;;;5009448;28;20033;-90
2023/09/13 02:23:26;;;;;;;7.93;6.45;;;21.40;90.60;;;;;;5005080;28;20025;-90
2023/09/13 02:25:51;;;;;;;9.20;7.72;;;21.40;90.60;;;;;;5001026;28;20033;-90
2023/09/13 02:28:17;;;;;;;8.40;7.05;;;21.50;90.60;;;;;;5003412;28;20040;-91
2023/09/13 02:30:45;;;;;;;8.13;6.57;;;21.50;90.60;;;;;;5004038;28;20014;-91
2023/09/13 02:33:11;;;;;;;10.38;7.18;;;21.50;90.70;;;;;;5012363;28;20051;-91
2023/09/13 02:35:37;;;;;;;8.15;6.60;;;21.40;90.70;;;;;;5006562;28;20018;-92
2023/09/13 02:38:03;;;;;;;9.05;6.90;;;21.40;90.70;;;;;;5020137;28;20421;-89
2023/09/13 02:40:28;;;;;;;9.50;7.43;;;21.40;91.00;;;;;;5009887;28;20026;-90
2023/09/13 02:42:54;;;;;;;8.90;7.60;;;21.40;90.70;;;;;;5013414;28;20543;-90
2023/09/13 02:45:20;;;;;;;8.85;7.13;;;21.50;90.70;;;;;;5010153;28;20595;-91
2023/09/13 02:47:46;;;;;;;9.82;8.60;;;21.40;90.70;;;;;;5008531;28;20019;-91
2023/09/13 02:50:11;;;;;;;11.27;8.32;;;21.40;90.80;;;;;;5013135;28;20065;-92
2023/09/13 02:52:37;;;;;;;9.15;7.88;;;21.40;90.80;;;;;;5010461;28;20517;-92
2023/09/13 02:55:07;;;;;;;8.30;7.10;;;21.40;90.80;;;;;;5003262;28;20048;-91
2023/09/13 02:57:33;;;;;;;6.57;5.88;;;21.40;90.80;;;;;;5013723;28;20030;-91
2023/09/13 03:00:00;;;;;;;8.15;7.18;;;21.40;90.70;;;;;;5012499;28;20029;-87
2023/09/13 03:02:30;;;;;;;7.22;6.53;;;21.40;90.70;;;;;;5026199;28;20393;-89
2023/09/13 03:05:08;;;;;;;9.48;7.38;;;21.40;90.70;;;;;;5007825;28;20023;-92
2023/09/13 03:07:34;;;;;;;7.75;6.32;;;21.40;90.70;;;;;;4997627;28;20038;-88
2023/09/13 03:10:00;;;;;;;8.10;6.72;;;21.40;90.70;;;;;;5012199;28;20029;-88
2023/09/13 03:12:26;;;;;;;8.30;7.38;;;21.40;90.70;;;;;;5010232;28;20025;-88
2023/09/13 03:14:54;;;;;;;7.90;7.07;;;21.40;90.80;;;;;;5006649;28;20061;-92
2023/09/13 03:17:21;;;;;;;10.25;7.65;;;21.30;90.80;;;;;;5001536;28;20070;-92
2023/09/13 03:19:47;;;;;;;9.10;8.00;;;21.20;90.90;;;;;;5009308;28;20065;-91
2023/09/13 03:22:13;;;;;;;9.30;7.93;;;21.20;91.00;;;;;;4983769;23;20134;-87
2023/09/13 03:24:39;;;;;;;8.23;7.38;;;21.10;91.10;;;;;;4999129;28;20487;-88
2023/09/13 03:27:07;;;;;;;8.15;6.85;;;21.10;91.10;;;;;;5002255;28;20022;-88
2023/09/13 03:29:32;;;;;;;8.48;7.13;;;21.10;91.10;;;;;;5007566;28;20042;-87
2023/09/13 03:31:58;;;;;;;8.45;6.95;;;21.20;91.10;;;;;;4991138;28;20026;-87
2023/09/13 03:34:24;;;;;;;9.27;7.82;;;21.20;91.00;;;;;;4997566;28;20121;-87
2023/09/13 03:36:49;;;;;;;7.85;6.72;;;21.20;91.00;;;;;;5005111;28;20022;-86
2023/09/13 03:39:15;;;;;;;8.35;6.82;;;21.20;91.00;;;;;;5023861;28;20029;-86
2023/09/13 03:41:40;;;;;;;9.82;7.03;;;21.20;91.00;;;;;;4990553;28;20054;-86
2023/09/13 03:44:06;;;;;;;9.45;7.68;;;21.20;91.00;;;;;;5023380;28;20030;-87
2023/09/13 03:46:31;;;;;;;7.93;6.55;;;21.10;91.00;;;;;;4999600;28;20021;-86
2023/09/13 03:48:57;;;;;;;10.15;7.22;;;21.10;91.00;;;;;;5023686;28;20512;-85
2023/09/13 03:51:23;;;;;;;9.70;7.82;;;21.10;91.10;;;;;;4985893;28;20045;-85
2023/09/13 03:53:48;;;;;;;10.68;8.57;;;21.00;91.20;;;;;;4991651;28;20109;-85
2023/09/13 03:56:14;;;;;;;11.45;9.13;;;21.00;91.30;;;;;;4994515;28;20117;-85
2023/09/13 03:58:39;;;;;;;11.55;9.20;;;21.00;91.30;;;;;;4993871;28;20033;-86
2023/09/13 04:01:06;;;;;;;13.60;10.88;;;21.00;91.30;;;;;;4992473;28;20035;-86
2023/09/13 04:03:32;;;;;;;13.57;11.25;;;21.00;91.40;;;;;;4989793;28;20018;-86
2023/09/13 04:05:59;;;;;;;16.33;12.32;;;21.00;91.40;;;;;;4994370;28;20018;-85
2023/09/13 04:08:24;;;;;;;15.15;12.18;;;21.00;91.50;;;;;;4990894;28;20038;-85
2023/09/13 04:10:50;;;;;;;17.15;13.02;;;21.00;91.60;;;;;;4990764;28;20037;-87
2023/09/13 04:13:16;;;;;;;15.88;12.30;;;21.00;91.60;;;;;;4993348;28;20052;-89
2023/09/13 04:15:45;;;;;;;15.98;12.52;;;21.00;91.70;;;;;;5031491;28;20018;-86
2023/09/13 04:18:11;;;;;;;16.60;12.70;;;21.00;92.00;;;;;;4991137;28;20026;-86
2023/09/13 04:20:37;;;;;;;16.80;13.25;;;21.00;91.70;;;;;;4988019;28;20444;-86
2023/09/13 04:23:02;;;;;;;17.40;13.80;;;21.00;91.70;;;;;;5020432;28;20018;-85
2023/09/13 04:25:28;;;;;;;17.80;14.15;;;21.10;91.80;;;;;;4994179;28;20050;-88
2023/09/13 04:27:54;;;;;;;16.13;12.30;;;21.00;91.80;;;;;;5017188;28;20029;-91
2023/09/13 04:30:20;;;;;;;17.50;12.73;;;21.10;91.80;;;;;;5022183;28;20036;-91
2023/09/13 04:32:49;;;;;;;16.50;12.73;;;21.10;91.80;;;;;;4995957;28;20018;-91
2023/09/13 04:35:15;;;;;;;23.23;17.95;;;21.10;91.80;;;;;;5015672;28;20091;-93
2023/09/13 04:37:43;;;;;;;25.98;19.73;;;21.00;91.90;;;;;;4992259;28;20133;-92
2023/09/13 04:40:08;;;;;;;20.58;16.52;;;21.00;92.20;;;;;;4997926;28;20584;-88
2023/09/13 04:42:41;;;;;;;23.95;17.52;;;20.90;92.20;;;;;;4989585;28;20034;-89
2023/09/13 04:45:07;;;;;;;22.55;16.90;;;20.90;92.40;;;;;;4987409;28;20117;-88
2023/09/13 04:47:33;;;;;;;26.00;19.17;;;20.80;92.40;;;;;;4995868;28;20022;-87
2023/09/13 04:49:58;;;;;;;23.40;18.33;;;20.80;92.50;;;;;;4997500;28;20049;-88
2023/09/13 04:52:25;;;;;;;26.35;20.20;;;20.80;92.80;;;;;;4990823;28;20539;-88
2023/09/13 04:54:50;;;;;;;24.23;19.27;;;20.80;92.50;;;;;;5001072;28;20571;-88
2023/09/13 04:57:16;;;;;;;27.60;21.70;;;20.80;92.60;;;;;;4990955;28;20026;-88
2023/09/13 04:59:43;;;;;;;23.00;18.15;;;20.80;92.70;;;;;;5009664;28;20487;-88
2023/09/13 05:02:12;;;;;;;31.05;23.48;;;20.80;92.60;;;;;;4994272;28;20026;-87
2023/09/13 05:04:38;;;;;;;24.63;18.52;;;20.80;92.60;;;;;;4990385;28;20025;-88
2023/09/13 05:07:05;;;;;;;26.70;20.80;;;20.70;92.60;;;;;;4990053;28;20026;-88
2023/09/13 05:09:31;;;;;;;28.73;21.42;;;20.70;92.70;;;;;;4994937;28;20042;-89
2023/09/13 05:11:57;;;;;;;23.40;17.83;;;20.70;92.80;;;;;;4993900;28;20034;-87
2023/09/13 05:14:23;;;;;;;29.38;21.25;;;20.60;92.80;;;;;;4991269;28;20034;-88
2023/09/13 05:16:48;;;;;;;27.10;20.92;;;20.60;92.80;;;;;;4992924;28;20014;-89
2023/09/13 05:19:14;;;;;;;27.40;21.48;;;20.60;92.80;;;;;;4991330;28;20424;-87
2023/09/13 05:21:40;;;;;;;26.77;21.50;;;20.60;92.80;;;;;;4990886;28;20034;-87
2023/09/13 05:24:07;;;;;;;27.40;20.65;;;20.60;92.90;;;;;;4982053;28;20023;-88
2023/09/13 05:26:33;;;;;;;32.80;25.30;;;20.50;92.90;;;;;;4988231;28;20034;-86
2023/09/13 05:28:59;;;;;;;28.55;21.52;;;20.50;92.90;;;;;;4989718;28;20045;-88
2023/09/13 05:31:24;;;;;;;35.50;26.35;;;20.40;93.00;;;;;;4989781;28;20018;-87
2023/09/13 05:33:50;;;;;;;28.70;22.02;;;20.40;93.10;;;;;;4989008;28;20061;-87
2023/09/13 05:36:16;;;;;;;33.75;23.75;;;20.40;93.10;;;;;;4989589;28;20033;-87
2023/09/13 05:38:42;;;;;;;27.30;20.23;;;20.40;93.10;;;;;;4998364;28;20026;-89
2023/09/13 05:41:12;;;;;;;29.80;22.13;;;20.40;93.10;;;;;;4989458;28;20096;-89
2023/09/13 05:43:39;;;;;;;32.53;24.23;;;20.40;93.00;;;;;;4991883;28;20033;-88
2023/09/13 05:46:05;;;;;;;33.08;24.02;;;20.40;93.10;;;;;;4990385;28;20029;-87
2023/09/13 05:48:31;;;;;;;28.92;21.42;;;20.30;93.10;;;;;;4988746;28;20496;-85
2023/09/13 05:50:57;;;;;;;33.50;24.52;;;20.30;93.20;;;;;;4990643;28;20088;-85
2023/09/13 05:53:22;;;;;;;31.05;21.48;;;20.40;93.20;;;;;;4990067;28;20022;-85
2023/09/13 05:55:48;;;;;;;31.13;21.65;;;20.30;93.30;;;;;;4997624;28;20022;-85
2023/09/13 05:58:14;;;;;;;27.80;19.83;;;20.30;93.30;;;;;;5015700;28;20031;-85
2023/09/13 06:00:46;;;;;;;29.48;21.95;;;20.30;93.30;;;;;;5001696;28;20021;-85
2023/09/13 06:03:12;;;;;;;;;;;20.30;93.30;;;;;;4999865;28;20034;-85
2023/09/13 06:05:37;;;;;;;30.80;23.10;;;20.30;93.20;;;;;;5000805;28;19918;-86
2023/09/13 06:08:04;;;;;;;29.33;23.13;;;20.30;93.50;;;;;;4991741;28;20022;-85
2023/09/13 06:10:29;;;;;;;32.33;22.92;;;20.30;93.30;;;;;;4983802;28;20101;-84
2023/09/13 06:12:55;;;;;;;30.02;21.30;;;20.30;93.30;;;;;;4985174;28;20038;-85
2023/09/13 06:15:20;;;;;;;25.42;19.52;;;20.30;93.30;;;;;;4987727;28;20113;-84
2023/09/13 06:17:46;;;;;;;25.10;18.45;;;20.30;93.30;;;;;;4988572;28;20073;-84
2023/09/13 06:20:12;;;;;;;30.08;21.25;;;20.30;93.30;;;;;;4992604;28;20022;-85
2023/09/13 06:22:37;;;;;;;32.28;22.63;;;20.30;93.40;;;;;;5014370;28;20026;-86
2023/09/13 06:25:03;;;;;;;29.05;21.38;;;20.30;93.40;;;;;;4990566;28;20681;-86
2023/09/13 06:27:29;;;;;;;26.25;19.42;;;20.30;93.30;;;;;;4989334;28;20137;-86
2023/09/13 06:29:55;;;;;;;27.90;21.00;;;20.40;93.30;;;;;;4992745;28;20624;-86
2023/09/13 06:32:21;;;;;;;27.40;20.13;;;20.40;93.50;;;;;;4992166;28;20445;-85
2023/09/13 06:34:46;;;;;;;30.45;22.00;;;20.40;93.10;;;;;;4993454;28;20033;-86
2023/09/13 06:37:12;;;;;;;27.10;20.40;;;20.40;93.20;;;;;;4993390;28;20026;-86
2023/09/13 06:39:38;;;;;;;30.52;22.17;;;20.40;93.20;;;;;;4991786;28;20058;-85
2023/09/13 06:42:04;;;;;;;24.08;17.58;;;20.50;93.60;;;;;;4992827;28;20536;-86
2023/09/13 06:44:30;;;;;;;25.45;19.77;;;20.50;93.20;;;;;;4992942;28;20041;-86
2023/09/13 06:46:56;;;;;;;27.75;19.90;;;20.50;93.10;;;;;;4993533;28;20041;-86
2023/09/13 06:49:21;;;;;;;26.55;18.15;;;20.50;93.20;;;;;;4991674;28;20026;-85
2023/09/13 06:51:47;;;;;;;22.73;17.33;;;20.50;93.10;;;;;;4992464;28;20022;-85
2023/09/13 06:54:12;;;;;;;27.17;19.27;;;20.50;93.10;;;;;;4993127;28;20033;-85
2023/09/13 06:56:40;;;;;;;24.52;18.27;;;20.40;93.10;;;;;;5000592;28;20389;-86
2023/09/13 06:59:07;;;;;;;16.15;12.70;;;20.40;93.20;;;;;;4993489;28;20037;-86
2023/09/13 07:01:32;;;;;;;12.07;8.73;;;20.40;93.10;;;;;;4988186;28;20099;-87
2023/09/13 07:03:58;;;;;;;5.13;3.60;;;20.20;92.40;;;;;;5002699;28;20026;-88
2023/09/13 07:06:24;;;;;;;2.83;1.88;;;19.80;91.30;;;;;;5024212;28;20046;-87
2023/09/13 07:08:49;;;;;;;2.58;1.13;;;19.50;91.20;;;;;;5024469;28;20277;-86
2023/09/13 07:11:16;;;;;;;2.35;0.98;;;19.20;90.90;;;;;;4999917;28;20022;-86
2023/09/13 07:13:42;;;;;;;0.93;0.80;;;19.10;90.80;;;;;;4996385;28;20025;-87
2023/09/13 07:16:08;;;;;;;0.70;0.70;;;18.90;90.80;;;;;;5005506;28;20039;-85
2023/09/13 07:18:34;;;;;;;1.60;0.70;;;18.70;90.50;;;;;;4994811;28;20125;-86
2023/09/13 07:20:59;;;;;;;2.42;0.75;;;18.70;90.40;;;;;;4997018;28;20110;-86
2023/09/13 07:23:26;;;;;;;1.50;0.60;;;18.50;90.40;;;;;;4993072;28;20513;-87
2023/09/13 07:25:52;;;;;;;1.60;0.68;;;18.40;90.30;;;;;;4999348;28;20489;-85
2023/09/13 07:28:17;;;;;;;1.85;0.80;;;18.30;90.30;;;;;;4992187;28;20026;-87
2023/09/13 07:30:43;;;;;;;0.90;0.77;;;18.20;90.50;;;;;;4991790;28;20084;-87
2023/09/13 07:33:09;;;;;;;0.73;0.70;;;18.20;90.50;;;;;;4993012;28;20367;-86
2023/09/13 07:35:35;;;;;;;2.55;0.82;;;18.10;90.60;;;;;;4990911;28;20136;-86
2023/09/13 07:38:00;;;;;;;1.58;0.80;;;18.10;90.60;;;;;;4992662;28;20036;-88
2023/09/13 07:40:26;;;;;;;1.05;0.70;;;18.10;90.60;;;;;;4991358;28;20022;-86
2023/09/13 07:42:52;;;;;;;0.95;0.70;;;18.10;90.60;;;;;;5003730;28;20101;-86
2023/09/13 07:45:17;;;;;;;1.13;0.70;;;18.10;90.60;;;;;;4994947;28;20041;-85
2023/09/13 07:47:43;;;;;;;3.20;1.00;;;18.10;90.50;;;;;;5004253;28;20072;-85
2023/09/13 07:50:30;;;;;;;2.03;0.90;;;18.20;90.50;;;;;;5011158;28;20639;-87
2023/09/13 07:52:55;;;;;;;1.50;0.77;;;18.40;90.20;;;;;;4990591;28;20072;-86
2023/09/13 07:55:21;;;;;;;1.65;0.98;;;18.50;89.90;;;;;;5023604;28;20436;-85
2023/09/13 07:57:47;;;;;;;2.40;1.60;;;18.50;89.60;;;;;;4995049;28;20145;-85
2023/09/13 08:00:13;;;;;;;9.20;5.57;;;18.50;89.50;;;;;;4995042;28;20027;-86
2023/09/13 08:02:41;;;;;;;4.05;1.67;;;18.50;89.70;;;;;;4977593;28;20029;-87
2023/09/13 08:05:08;;;;;;;19.80;8.88;;;18.30;89.40;;;;;;4995814;28;20030;-88
2023/09/13 08:07:33;;;;;;;6.13;3.08;;;18.30;89.70;;;;;;4998765;28;20524;-87
2023/09/13 08:10:02;;;;;;;1.80;1.17;;;18.20;89.70;;;;;;4991383;28;20032;-88
2023/09/13 08:12:28;;;;;;;2.45;0.98;;;18.20;89.40;;;;;;4993227;28;20022;-87
2023/09/13 08:14:53;;;;;;;1.48;1.02;;;18.10;89.60;;;;;;4998318;28;20026;-88
2023/09/13 08:17:19;;;;;;;1.30;0.90;;;18.10;89.80;;;;;;5000214;28;20053;-87
2023/09/13 08:19:46;;;;;;;1.77;1.10;;;18.10;89.60;;;;;;5005802;28;20023;-86
2023/09/13 08:22:12;;;;;;;2.25;0.90;;;18.10;89.80;;;;;;5029368;28;20549;-85
2023/09/13 08:24:38;;;;;;;2.45;1.20;;;18.10;90.00;;;;;;5010627;28;20030;-89
2023/09/13 08:27:04;;;;;;;1.92;0.90;;;18.10;89.80;;;;;;4996342;28;20355;-87
2023/09/13 08:29:30;;;;;;;3.03;1.63;;;18.20;89.80;;;;;;4998086;28;20049;-88
2023/09/13 08:31:56;;;;;;;2.67;1.00;;;18.20;89.70;;;;;;4998919;28;20014;-87
2023/09/13 08:34:23;;;;;;;1.75;1.08;;;18.20;89.30;;;;;;4999500;28;20053;-89
2023/09/13 08:36:53;;;;;;;2.95;1.52;;;18.10;89.20;;;;;;5002837;28;20124;-88
2023/09/13 08:39:19;;;;;;;2.60;1.20;;;18.10;89.00;;;;;;4995277;28;20377;-87
2023/09/13 08:41:50;;;;;;;2.25;1.30;;;18.10;88.70;;;;;;4991509;28;20017;-88
2023/09/13 08:44:20;;;;;;;1.58;1.10;;;18.20;88.50;;;;;;4987091;28;20065;-87
2023/09/13 08:46:47;;;;;;;1.52;0.98;;;18.20;88.10;;;;;;4991319;28;20503;-87
2023/09/13 08:49:14;;;;;;;3.67;1.55;;;18.30;88.40;;;;;;4999628;28;20034;-87
2023/09/13 08:51:40;;;;;;;2.75;1.45;;;18.30;87.90;;;;;;4998852;28;20023;-88
2023/09/13 08:54:07;;;;;;;3.63;2.13;;;18.30;87.40;;;;;;4998246;28;20026;-88
2023/09/13 08:56:34;;;;;;;2.63;1.55;;;18.40;87.30;;;;;;5002854;28;20037;-87
2023/09/13 08:59:01;;;;;;;2.15;1.33;;;18.50;87.00;;;;;;4997146;28;20014;-87
2023/09/13 09:01:28;;;;;;;2.92;1.10;;;18.50;87.40;;;;;;4988149;28;20033;-87
2023/09/13 09:03:54;;;;;;;2.97;1.65;;;18.50;86.80;;;;;;4989410;28;20041;-86
2023/09/13 09:06:20;;;;;;;1.60;1.02;;;18.60;86.60;;;;;;4986453;28;20120;-85
2023/09/13 09:08:48;;;;;;;1.50;1.15;;;18.60;86.10;;;;;;4988636;28;20838;-85
2023/09/13 09:11:16;;;;;;;2.50;1.27;;;18.70;85.80;;;;;;4996206;28;20022;-89
2023/09/13 09:13:43;;;;;;;1.98;1.20;;;18.70;84.60;;;;;;5008820;28;20026;-88
2023/09/13 09:16:10;;;;;;;3.00;1.00;;;18.80;84.00;;;;;;5024439;28;20477;-88
2023/09/13 09:18:38;;;;;;;1.58;0.90;;;18.90;84.00;;;;;;4989052;28;20056;-88
2023/09/13 09:21:04;;;;;;;1.83;1.20;;;19.00;83.60;;;;;;4988310;28;20035;-86
2023/09/13 09:23:31;;;;;;;2.08;1.30;;;19.00;83.00;;;;;;4991412;28;20417;-86
2023/09/13 09:25:56;;;;;;;3.70;1.35;;;19.10;82.20;;;;;;4998583;28;20404;-87
2023/09/13 09:28:23;;;;;;;1.10;0.95;;;19.10;80.50;;;;;;4990204;28;20113;-89
2023/09/13 09:30:51;;;;;;;2.28;1.10;;;19.10;80.60;;;;;;4992794;28;20044;-87
2023/09/13 09:33:28;;;;;;;2.75;1.20;;;19.30;80.90;;;;;;4992162;28;20026;-89
2023/09/13 09:35:56;;;;;;;1.67;0.90;;;19.30;79.60;;;;;;4989868;28;20400;-86
2023/09/13 09:38:23;;;;;;;1.65;0.90;;;19.30;79.60;;;;;;4989288;28;20392;-85
2023/09/13 09:40:50;;;;;;;3.25;1.00;;;19.40;79.70;;;;;;4987835;28;20030;-86
2023/09/13 09:43:16;;;;;;;1.75;1.10;;;19.50;78.10;;;;;;4990134;28;20414;-86
2023/09/13 09:45:42;;;;;;;2.75;1.20;;;19.60;78.20;;;;;;4987595;28;20022;-85
2023/09/13 09:48:08;;;;;;;2.55;1.23;;;19.80;77.40;;;;;;4990791;28;20564;-91
2023/09/13 09:50:34;;;;;;;1.10;0.90;;;19.90;77.30;;;;;;4988637;28;20027;-90
2023/09/13 09:53:07;;;;;;;1.25;0.90;;;20.10;77.40;;;;;;4989330;28;20081;-83
2023/09/13 09:55:33;;;;;;;1.58;1.10;;;20.30;77.00;;;;;;4987452;28;20030;-85
2023/09/13 09:57:59;;;;;;;2.08;1.02;;;20.30;75.90;;;;;;4988655;28;20049;-86
2023/09/13 10:00:24;;;;;;;2.08;1.08;;;20.40;75.90;;;;;;4988460;28;20038;-86
2023/09/13 10:02:50;;;;;;;1.75;1.10;;;20.60;75.80;;;;;;4981311;28;20030;-87
2023/09/13 10:05:17;;;;;;;2.00;1.20;;;20.60;74.80;;;;;;4989933;28;20426;-88
2023/09/13 10:07:57;;;;;;;2.03;1.30;;;20.70;74.80;;;;;;4998247;28;20045;-90
2023/09/13 10:10:33;;;;;;;2.25;1.23;;;20.80;73.90;;;;;;4988862;28;20035;-89
2023/09/13 10:12:59;;;;;;;2.08;1.10;;;20.80;73.90;;;;;;4989466;28;20092;-88
2023/09/13 10:15:25;;;;;;;2.97;1.40;;;20.80;73.80;;;;;;4995385;28;20117;-88
2023/09/13 10:17:55;;;;;;;2.05;1.20;;;20.90;73.60;;;;;;4988185;28;20076;-89
2023/09/13 10:20:22;;;;;;;2.88;1.30;;;20.90;73.30;;;;;;4986747;28;20158;-91
2023/09/13 10:22:49;;;;;;;2.38;1.20;;;20.80;71.80;;;;;;4999614;28;20516;-92
2023/09/13 10:25:17;;;;;;;2.05;1.10;;;20.70;71.80;;;;;;4999988;28;20046;-92
2023/09/13 10:27:48;;;;;;;3.22;1.33;;;20.70;71.70;;;;;;4989477;28;20032;-91
2023/09/13 10:30:20;;;;;;;2.50;1.60;;;20.80;71.70;;;;;;5006048;28;20035;-93
2023/09/13 10:32:48;;;;;;;2.88;1.60;;;21.00;71.50;;;;;;4987059;28;20014;-92
2023/09/13 10:35:15;;;;;;;3.00;1.80;;;21.10;71.00;;;;;;4988969;28;20113;-92
2023/09/13 10:37:47;;;;;;;2.85;1.60;;;21.10;71.20;;;;;;4991402;28;20026;-93
2023/09/13 10:40:20;;;;;;;;;;;21.20;71.00;;;;;;4987641;28;20030;-93
2023/09/13 10:42:46;;;;;;;2.13;1.40;;;21.30;71.20;;;;;;4994573;28;19964;-94
2023/09/13 10:45:18;;;;;;;4.47;1.63;;;21.30;70.80;;;;;;4995881;28;20409;-93
2023/09/13 10:47:46;;;;;;;3.28;1.77;;;21.20;70.20;;;;;;5004713;28;20073;-93
2023/09/13 10:50:14;;;;;;;3.33;1.50;;;21.10;70.40;;;;;;4993191;28;20117;-94
2023/09/13 10:52:44;;;;;;;2.38;1.33;;;21.00;70.10;;;;;;4998441;28;20022;-94
2023/09/13 10:55:11;;;;;;;3.40;1.50;;;20.90;69.90;;;;;;4996921;28;20084;-85
2023/09/13 10:57:40;;;;;;;2.85;1.50;;;20.80;69.80;;;;;;4990250;28;20030;-84
2023/09/13 11:00:12;;;;;;;2.42;1.48;;;20.80;70.00;;;;;;4983334;28;20038;-83
2023/09/13 11:02:43;;;;;;;5.55;1.90;;;20.90;70.40;;;;;;4988375;28;20088;-83
2023/09/13 11:05:13;;;;;;;4.20;1.55;;;20.90;70.50;;;;;;4987710;28;20444;-83
2023/09/13 11:07:41;;;;;;;3.17;1.50;;;20.80;70.60;;;;;;5015432;28;20033;-82
2023/09/13 11:10:20;;;;;;;4.40;1.90;;;20.80;70.80;;;;;;5021639;28;20035;-83
2023/09/13 11:12:50;;;;;;;2.45;1.73;;;20.70;70.60;;;;;;4990689;28;20014;-84
2023/09/13 11:15:24;;;;;;;5.25;1.80;;;20.70;71.00;;;;;;5008180;28;20034;-84
2023/09/13 11:17:53;;;;;;;3.63;1.80;;;20.80;70.80;;;;;;4995153;28;20056;-85
2023/09/13 11:20:35;;;;;;;2.95;1.63;;;20.70;71.00;;;;;;4995797;28;20029;-90
2023/09/13 11:23:18;;;;;;;3.78;1.80;;;20.70;71.00;;;;;;4986882;28;20026;-89
2023/09/13 11:25:55;;;;;;;3.85;1.63;;;20.70;71.10;;;;;;4992052;28;20019;-88
2023/09/13 11:28:38;;;;;;;4.32;1.50;;;20.80;71.20;;;;;;4990469;28;20632;-86
2023/09/13 11:31:08;;;;;;;3.10;1.90;;;20.80;70.80;;;;;;4992526;28;20100;-86
2023/09/13 11:33:56;;;;;;;3.67;1.67;;;20.70;70.60;;;;;;4989216;28;20022;-83
2023/09/13 11:36:24;;;;;;;2.50;1.63;;;20.80;70.30;;;;;;5021790;28;20030;-84
2023/09/13 11:38:53;;;;;;;1.95;1.30;;;20.90;69.80;;;;;;4988127;28;20401;-83
2023/09/13 11:41:20;;;;;;;1.85;1.25;;;21.10;69.20;;;;;;4993803;28;20022;-85
2023/09/13 11:43:48;;;;;;;2.00;1.23;;;21.10;68.50;;;;;;4991907;28;20513;-83
2023/09/13 11:46:17;;;;;;;3.40;1.60;;;21.20;68.00;;;;;;4990544;28;20911;-83
2023/09/13 11:48:48;;;;;;;2.15;1.23;;;21.30;67.60;;;;;;4993846;28;20045;-85
2023/09/13 11:51:16;;;;;;;3.78;1.20;;;21.50;67.60;;;;;;4995469;28;20080;-92
2023/09/13 11:53:43;;;;;;;2.92;1.35;;;21.50;67.60;;;;;;4992190;28;20023;-86
2023/09/13 11:56:32;;;;;;;2.92;1.20;;;21.40;67.30;;;;;;4987406;28;20478;-85
2023/09/13 11:58:58;;;;;;;3.00;1.05;;;21.30;67.40;;;;;;4982828;28;20129;-82
2023/09/13 12:01:24;;;;;;;2.25;1.25;;;21.30;67.60;;;;;;4987796;28;20544;-84
2023/09/13 12:03:51;;;;;;;2.85;1.08;;;21.50;67.30;;;;;;4990531;28;20594;-85
2023/09/13 12:06:18;;;;;;;2.13;1.10;;;21.60;66.90;;;;;;4987846;28;20022;-86
2023/09/13 12:08:47;;;;;;;1.23;0.88;;;21.90;66.70;;;;;;4986115;28;20088;-85
2023/09/13 12:11:13;;;;;;;2.28;1.02;;;22.10;66.50;;;;;;4996935;28;20030;-84
2023/09/13 12:13:43;;;;;;;4.03;1.60;;;22.20;66.00;;;;;;4992161;28;20034;-85
2023/09/13 12:16:10;;;;;;;2.13;1.10;;;22.20;65.50;;;;;;5001444;28;20026;-84
2023/09/13 12:18:37;;;;;;;2.00;1.10;;;22.20;65.20;;;;;;4990394;28;20034;-85
2023/09/13 12:21:03;;;;;;;4.10;1.25;;;22.20;64.80;;;;;;4994005;28;20032;-89
2023/09/13 12:23:37;;;;;;;3.20;1.20;;;22.10;64.60;;;;;;5014739;28;20034;-87
2023/09/13 12:26:08;;;;;;;4.47;1.08;;;22.10;65.00;;;;;;4982645;28;20026;-86
2023/09/13 12:28:37;;;;;;;2.13;0.98;;;22.00;65.20;;;;;;4991078;28;20400;-86
2023/09/13 12:31:09;;;;;;;2.20;1.20;;;21.90;65.40;;;;;;4987210;28;20027;-86
2023/09/13 12:33:36;;;;;;;;;;;21.80;65.90;;;;;;4997864;28;20385;-86
2023/09/13 12:36:02;;;;;;;3.17;1.55;;;21.60;66.60;;;;;;4993707;28;19920;-85
2023/09/13 12:38:43;;;;;;;2.03;1.20;;;21.40;67.80;;;;;;4993057;28;20026;-85
2023/09/13 12:41:13;;;;;;;2.22;1.05;;;21.20;68.90;;;;;;4992326;28;20018;-86
2023/09/13 12:43:42;;;;;;;3.72;1.50;;;21.10;69.40;;;;;;4989261;28;20050;-86